sensor_id;sensor_type;location;lat;lon;timestamp;pressure;altitude;pressure_sealevel;temperature;humidity
14273;BME280;7220;49.450;11.052;2023-11-22T00:02:57;98556.81;;;5.69;100.00
14273;BME280;7220;49.450;11.052;2023-11-22T00:06:57;98547.31;;;5.63;100.00
14273;BME280;7220;49.450;11.052;2023-11-22T00:10:57;98550.94;;;5.59;100.00
14273;BME280;7220;49.450;11.052;2023-11-22T00:14:59;98553.56;;;5.61;100.00
14273;BME280;7220;49.450;11.052;2023-11-22T00:18:59;98558.03;;;5.57;100.00
14273;BME280;7220;49.450;11.052;2023-11-22T00:23:00;98554.53;;;5.57;100.00
14273;BME280;7220;49.450;11.052;2023-11-22T00:27:00;98559.94;;;5.52;100.00
14273;BME280;7220;49.450;11.052;2023-11-22T00:31:00;98563.59;;;5.46;100.00
14273;BME280;7220;49.450;11.052;2023-11-22T00:35:01;98567.91;;;5.49;100.00
14273;BME280;7220;49.450;11.052;2023-11-22T00:39:01;98569.75;;;5.45;100.00
14273;BME280;7220;49.450;11.052;2023-11-22T00:43:01;98564.41;;;5.48;100.00
14273;BME280;7220;49.450;11.052;2023-11-22T00:47:02;98568.06;;;5.44;100.00
14273;BME280;7220;49.450;11.052;2023-11-22T00:51:03;98573.41;;;5.41;99.89
14273;BME280;7220;49.450;11.052;2023-11-22T00:55:08;98580.88;;;5.24;98.97
14273;BME280;7220;49.450;11.052;2023-11-22T00:59:09;98581.13;;;5.14;97.82
14273;BME280;7220;49.450;11.052;2023-11-22T01:03:09;98601.41;;;5.11;97.56
14273;BME280;7220;49.450;11.052;2023-11-22T01:07:11;98605.81;;;5.10;97.32
14273;BME280;7220;49.450;11.052;2023-11-22T01:21:05;98621.50;;;4.79;96.17
14273;BME280;7220;49.450;11.052;2023-11-22T01:25:06;98634.69;;;4.77;95.66
14273;BME280;7220;49.450;11.052;2023-11-22T01:29:07;98633.81;;;4.78;95.29
14273;BME280;7220;49.450;11.052;2023-11-22T01:33:07;98624.09;;;4.80;95.01
14273;BME280;7220;49.450;11.052;2023-11-22T01:37:07;98602.31;;;4.73;94.26
14273;BME280;7220;49.450;11.052;2023-11-22T01:41:08;98636.13;;;4.90;93.60
14273;BME280;7220;49.450;11.052;2023-11-22T01:45:08;98635.31;;;4.88;94.03
14273;BME280;7220;49.450;11.052;2023-11-22T01:49:10;98638.13;;;4.81;92.79
14273;BME280;7220;49.450;11.052;2023-11-22T01:53:12;98648.69;;;4.79;91.96
14273;BME280;7220;49.450;11.052;2023-11-22T01:57:14;98627.91;;;4.67;91.60
14273;BME280;7220;49.450;11.052;2023-11-22T02:01:14;98629.84;;;4.58;91.67
14273;BME280;7220;49.450;11.052;2023-11-22T02:05:15;98643.78;;;4.64;91.78
14273;BME280;7220;49.450;11.052;2023-11-22T02:09:15;98649.25;;;4.54;91.22
14273;BME280;7220;49.450;11.052;2023-11-22T02:13:16;98658.91;;;4.54;91.31
14273;BME280;7220;49.450;11.052;2023-11-22T02:17:16;98647.63;;;4.49;91.82
14273;BME280;7220;49.450;11.052;2023-11-22T02:21:19;98659.78;;;4.54;91.87
14273;BME280;7220;49.450;11.052;2023-11-22T02:25:21;98658.19;;;4.47;91.98
14273;BME280;7220;49.450;11.052;2023-11-22T02:29:21;98675.81;;;4.44;91.98
14273;BME280;7220;49.450;11.052;2023-11-22T02:33:22;98669.84;;;4.34;91.94
14273;BME280;7220;49.450;11.052;2023-11-22T02:37:22;98679.72;;;4.24;92.43
14273;BME280;7220;49.450;11.052;2023-11-22T02:41:27;98679.66;;;4.25;92.57
14273;BME280;7220;49.450;11.052;2023-11-22T02:45:29;98684.13;;;4.23;92.36
14273;BME280;7220;49.450;11.052;2023-11-22T02:49:30;98665.22;;;4.04;92.74
14273;BME280;7220;49.450;11.052;2023-11-22T02:53:30;98688.53;;;4.21;92.64
14273;BME280;7220;49.450;11.052;2023-11-22T02:57:31;98688.63;;;4.17;92.32
14273;BME280;7220;49.450;11.052;2023-11-22T03:01:31;98699.28;;;4.09;92.13
14273;BME280;7220;49.450;11.052;2023-11-22T03:05:31;98711.66;;;4.04;91.62
14273;BME280;7220;49.450;11.052;2023-11-22T03:09:32;98721.31;;;4.03;92.85
14273;BME280;7220;49.450;11.052;2023-11-22T03:13:32;98721.31;;;4.03;92.81
14273;BME280;7220;49.450;11.052;2023-11-22T03:17:33;98718.81;;;3.95;92.26
14273;BME280;7220;49.450;11.052;2023-11-22T03:21:33;98719.78;;;3.91;92.18
14273;BME280;7220;49.450;11.052;2023-11-22T03:25:36;98732.94;;;3.91;92.50
14273;BME280;7220;49.450;11.052;2023-11-22T03:29:37;98739.09;;;3.90;92.87
14273;BME280;7220;49.450;11.052;2023-11-22T03:33:38;98735.63;;;3.88;92.80
14273;BME280;7220;49.450;11.052;2023-11-22T03:37:38;98728.72;;;3.81;92.74
14273;BME280;7220;49.450;11.052;2023-11-22T03:41:38;98722.63;;;3.79;92.99
14273;BME280;7220;49.450;11.052;2023-11-22T03:45:39;98751.28;;;3.94;93.26
14273;BME280;7220;49.450;11.052;2023-11-22T03:49:40;98709.47;;;3.79;93.42
14273;BME280;7220;49.450;11.052;2023-11-22T03:53:40;98732.97;;;3.88;93.39
14273;BME280;7220;49.450;11.052;2023-11-22T03:57:40;98746.91;;;3.93;93.03
14273;BME280;7220;49.450;11.052;2023-11-22T04:01:41;98759.13;;;3.98;92.15
14273;BME280;7220;49.450;11.052;2023-11-22T04:05:41;98767.03;;;3.96;90.97
14273;BME280;7220;49.450;11.052;2023-11-22T04:09:42;98753.31;;;3.77;90.56
14273;BME280;7220;49.450;11.052;2023-11-22T04:13:43;98770.66;;;3.90;89.65
14273;BME280;7220;49.450;11.052;2023-11-22T04:17:43;98794.19;;;3.97;89.05
14273;BME280;7220;49.450;11.052;2023-11-22T04:21:44;98798.56;;;3.98;89.32
14273;BME280;7220;49.450;11.052;2023-11-22T04:25:44;98806.47;;;3.98;89.26
14273;BME280;7220;49.450;11.052;2023-11-22T04:29:44;98801.31;;;3.91;89.59
14273;BME280;7220;49.450;11.052;2023-11-22T04:33:45;98811.72;;;3.98;90.04
14273;BME280;7220;49.450;11.052;2023-11-22T04:37:46;98819.66;;;3.94;91.06
14273;BME280;7220;49.450;11.052;2023-11-22T04:41:47;98803.13;;;3.86;91.23
14273;BME280;7220;49.450;11.052;2023-11-22T04:45:47;98805.69;;;3.91;92.33
14273;BME280;7220;49.450;11.052;2023-11-22T04:49:48;98807.56;;;3.84;92.22
14273;BME280;7220;49.450;11.052;2023-11-22T04:53:48;98832.88;;;3.91;92.78
14273;BME280;7220;49.450;11.052;2023-11-22T04:57:51;98859.09;;;3.94;92.52
14273;BME280;7220;49.450;11.052;2023-11-22T05:01:53;98842.56;;;3.88;92.56
14273;BME280;7220;49.450;11.052;2023-11-22T05:05:53;98838.13;;;3.91;92.21
14273;BME280;7220;49.450;11.052;2023-11-22T05:09:53;98840.75;;;3.90;92.07
14273;BME280;7220;49.450;11.052;2023-11-22T05:13:54;98828.50;;;3.89;91.90
14273;BME280;7220;49.450;11.052;2023-11-22T05:17:54;98808.59;;;3.74;91.64
14273;BME280;7220;49.450;11.052;2023-11-22T05:21:55;98831.31;;;3.78;91.35
14273;BME280;7220;49.450;11.052;2023-11-22T05:25:55;98857.66;;;3.73;91.46
14273;BME280;7220;49.450;11.052;2023-11-22T05:29:56;98848.97;;;3.70;91.29
14273;BME280;7220;49.450;11.052;2023-11-22T05:33:56;98864.56;;;3.82;91.21
14273;BME280;7220;49.450;11.052;2023-11-22T05:37:57;98864.56;;;3.82;91.36
14273;BME280;7220;49.450;11.052;2023-11-22T05:41:57;98843.78;;;3.67;91.36
14273;BME280;7220;49.450;11.052;2023-11-22T05:45:57;98890.78;;;3.85;91.21
14273;BME280;7220;49.450;11.052;2023-11-22T05:49:58;98897.88;;;3.80;90.81
14273;BME280;7220;49.450;11.052;2023-11-22T05:53:58;98897.03;;;3.78;90.54
14273;BME280;7220;49.450;11.052;2023-11-22T05:57:58;98896.38;;;3.63;91.96
14273;BME280;7220;49.450;11.052;2023-11-22T06:01:58;98884.94;;;3.68;91.40
14273;BME280;7220;49.450;11.052;2023-11-22T06:05:59;98898.16;;;3.61;91.23
14273;BME280;7220;49.450;11.052;2023-11-22T06:09:59;98912.00;;;3.76;90.88
14273;BME280;7220;49.450;11.052;2023-11-22T06:14:03;98916.31;;;3.77;90.03
14273;BME280;7220;49.450;11.052;2023-11-22T06:18:03;98924.22;;;3.77;89.62
14273;BME280;7220;49.450;11.052;2023-11-22T06:22:03;98937.34;;;3.77;90.57
14273;BME280;7220;49.450;11.052;2023-11-22T06:26:04;98943.53;;;3.74;90.43
14273;BME280;7220;49.450;11.052;2023-11-22T06:30:05;98943.59;;;3.70;90.01
14273;BME280;7220;49.450;11.052;2023-11-22T06:38:32;98955.34;;;6.34;81.70
14273;BME280;7220;49.450;11.052;2023-11-22T06:42:32;98975.31;;;6.45;79.03
14273;BME280;7220;49.450;11.052;2023-11-22T06:46:33;98968.66;;;6.29;77.95
14273;BME280;7220;49.450;11.052;2023-11-22T06:50:34;98974.34;;;6.10;78.40
14273;BME280;7220;49.450;11.052;2023-11-22T06:54:34;98992.44;;;5.87;78.36
14273;BME280;7220;49.450;11.052;2023-11-22T06:58:36;98988.34;;;5.73;79.47
14273;BME280;7220;49.450;11.052;2023-11-22T07:02:36;98992.00;;;5.66;79.91
14273;BME280;7220;49.450;11.052;2023-11-22T07:06:37;98996.63;;;5.55;79.69
14273;BME280;7220;49.450;11.052;2023-11-22T07:10:38;98994.06;;;5.50;79.87
14273;BME280;7220;49.450;11.052;2023-11-22T07:14:38;99007.47;;;5.39;79.68
14273;BME280;7220;49.450;11.052;2023-11-22T07:18:38;99000.75;;;5.22;80.53
14273;BME280;7220;49.450;11.052;2023-11-22T07:22:39;99001.13;;;5.04;81.13
14273;BME280;7220;49.450;11.052;2023-11-22T07:26:42;99007.81;;;4.73;81.63
14273;BME280;7220;49.450;11.052;2023-11-22T07:30:43;99019.44;;;4.60;82.05
14273;BME280;7220;49.450;11.052;2023-11-22T07:34:43;99015.25;;;4.47;81.96
14273;BME280;7220;49.450;11.052;2023-11-22T07:38:44;99031.94;;;4.46;83.01
14273;BME280;7220;49.450;11.052;2023-11-22T07:42:44;99028.78;;;4.23;83.05
14273;BME280;7220;49.450;11.052;2023-11-22T07:46:45;99040.19;;;4.21;83.31
14273;BME280;7220;49.450;11.052;2023-11-22T07:50:45;99044.72;;;4.11;83.55
14273;BME280;7220;49.450;11.052;2023-11-22T07:54:48;99059.72;;;4.04;83.82
14273;BME280;7220;49.450;11.052;2023-11-22T07:58:48;99054.59;;;3.95;84.47
14273;BME280;7220;49.450;11.052;2023-11-22T08:02:50;99061.69;;;3.85;84.99
14273;BME280;7220;49.450;11.052;2023-11-22T08:06:50;99078.44;;;3.78;85.93
14273;BME280;7220;49.450;11.052;2023-11-22T08:10:51;99085.53;;;3.73;85.96
14273;BME280;7220;49.450;11.052;2023-11-22T08:14:53;99078.63;;;3.62;86.06
14273;BME280;7220;49.450;11.052;2023-11-22T08:18:55;99078.63;;;3.62;86.91
14273;BME280;7220;49.450;11.052;2023-11-22T08:22:56;99077.81;;;3.57;86.59
14273;BME280;7220;49.450;11.052;2023-11-22T08:26:57;99087.53;;;3.52;87.02
14273;BME280;7220;49.450;11.052;2023-11-22T08:30:58;99090.16;;;3.49;87.16
14273;BME280;7220;49.450;11.052;2023-11-22T08:34:59;99098.97;;;3.46;87.34
14273;BME280;7220;49.450;11.052;2023-11-22T08:39:02;99099.00;;;3.42;87.02
14273;BME280;7220;49.450;11.052;2023-11-22T08:43:04;99096.38;;;3.42;87.26
14273;BME280;7220;49.450;11.052;2023-11-22T08:47:05;99102.53;;;3.39;87.17
14273;BME280;7220;49.450;11.052;2023-11-22T08:51:05;99092.00;;;3.41;86.90
14273;BME280;7220;49.450;11.052;2023-11-22T08:55:08;99112.09;;;3.45;86.92
14273;BME280;7220;49.450;11.052;2023-11-22T08:59:08;99119.09;;;3.46;86.99
14273;BME280;7220;49.450;11.052;2023-11-22T09:03:09;99110.31;;;3.48;87.26
14273;BME280;7220;49.450;11.052;2023-11-22T09:07:13;99110.34;;;3.47;87.03
14273;BME280;7220;49.450;11.052;2023-11-22T09:11:14;99106.81;;;3.51;86.52
14273;BME280;7220;49.450;11.052;2023-11-22T09:15:16;99112.94;;;3.50;86.60
14273;BME280;7220;49.450;11.052;2023-11-22T09:19:17;99109.44;;;3.51;87.03
14273;BME280;7220;49.450;11.052;2023-11-22T09:23:17;99110.28;;;3.52;86.64
14273;BME280;7220;49.450;11.052;2023-11-22T09:27:18;99101.59;;;3.45;86.74
14273;BME280;7220;49.450;11.052;2023-11-22T09:31:20;99099.81;;;3.47;86.88
14273;BME280;7220;49.450;11.052;2023-11-22T09:35:21;99113.91;;;3.43;86.50
14273;BME280;7220;49.450;11.052;2023-11-22T09:39:22;99112.16;;;3.39;86.64
14273;BME280;7220;49.450;11.052;2023-11-22T09:43:22;99122.72;;;3.34;86.89
14273;BME280;7220;49.450;11.052;2023-11-22T09:47:24;99119.31;;;3.27;86.45
14273;BME280;7220;49.450;11.052;2023-11-22T09:51:29;99126.34;;;3.22;86.25
14273;BME280;7220;49.450;11.052;2023-11-22T09:55:33;99135.13;;;3.18;87.12
14273;BME280;7220;49.450;11.052;2023-11-22T09:59:33;99154.34;;;3.23;87.36
14273;BME280;7220;49.450;11.052;2023-11-22T10:03:34;99147.34;;;3.24;87.03
14273;BME280;7220;49.450;11.052;2023-11-22T10:07:34;99157.81;;;3.28;87.29
14273;BME280;7220;49.450;11.052;2023-11-22T10:11:36;99163.97;;;3.27;87.59
14273;BME280;7220;49.450;11.052;2023-11-22T10:15:39;99157.84;;;3.22;87.34
14273;BME280;7220;49.450;11.052;2023-11-22T10:19:39;99172.72;;;3.25;87.92
14273;BME280;7220;49.450;11.052;2023-11-22T10:23:40;99165.72;;;3.28;87.19
14273;BME280;7220;49.450;11.052;2023-11-22T10:27:40;99178.59;;;3.55;86.38
14273;BME280;7220;49.450;11.052;2023-11-22T10:31:40;99166.28;;;3.60;86.40
14273;BME280;7220;49.450;11.052;2023-11-22T10:35:46;99163.69;;;3.58;85.57
14273;BME280;7220;49.450;11.052;2023-11-22T10:39:50;99177.91;;;3.34;87.05
14273;BME280;7220;49.450;11.052;2023-11-22T10:43:52;99164.78;;;3.36;86.85
14273;BME280;7220;49.450;11.052;2023-11-22T10:47:56;99153.34;;;3.38;86.83
14273;BME280;7220;49.450;11.052;2023-11-22T10:51:57;99151.53;;;3.46;87.36
14273;BME280;7220;49.450;11.052;2023-11-22T10:56:11;99155.06;;;3.44;87.30
14273;BME280;7220;49.450;11.052;2023-11-22T11:00:12;99146.22;;;3.50;87.30
14273;BME280;7220;49.450;11.052;2023-11-22T11:08:28;99150.53;;;3.58;86.75
14273;BME280;7220;49.450;11.052;2023-11-22T11:12:29;99170.69;;;3.56;86.22
14273;BME280;7220;49.450;11.052;2023-11-22T11:16:30;99166.31;;;3.58;86.32
14273;BME280;7220;49.450;11.052;2023-11-22T11:20:57;99178.56;;;3.59;86.25
14273;BME280;7220;49.450;11.052;2023-11-22T11:25:05;99175.06;;;3.60;86.09
14273;BME280;7220;49.450;11.052;2023-11-22T11:29:06;99189.91;;;3.63;85.85
14273;BME280;7220;49.450;11.052;2023-11-22T11:33:08;99181.16;;;3.61;86.03
14273;BME280;7220;49.450;11.052;2023-11-22T11:37:10;99196.00;;;3.67;85.87
14273;BME280;7220;49.450;11.052;2023-11-22T11:41:13;99187.19;;;3.74;86.03
14273;BME280;7220;49.450;11.052;2023-11-22T11:45:15;99201.19;;;3.76;85.32
14273;BME280;7220;49.450;11.052;2023-11-22T11:49:15;99210.78;;;3.77;85.69
14273;BME280;7220;49.450;11.052;2023-11-22T11:53:18;99197.66;;;3.77;85.53
14273;BME280;7220;49.450;11.052;2023-11-22T11:57:19;99212.59;;;3.75;85.56
14273;BME280;7220;49.450;11.052;2023-11-22T12:01:19;99208.22;;;3.72;85.40
14273;BME280;7220;49.450;11.052;2023-11-22T12:05:23;99202.06;;;3.73;85.39
14273;BME280;7220;49.450;11.052;2023-11-22T12:09:26;99215.19;;;3.79;85.61
14273;BME280;7220;49.450;11.052;2023-11-22T12:13:27;99230.94;;;3.79;85.28
14273;BME280;7220;49.450;11.052;2023-11-22T12:17:28;99235.31;;;3.79;84.62
14273;BME280;7220;49.450;11.052;2023-11-22T12:21:29;99235.38;;;3.73;84.75
14273;BME280;7220;49.450;11.052;2023-11-22T12:25:30;99231.06;;;3.66;83.99
14273;BME280;7220;49.450;11.052;2023-11-22T12:29:31;99241.59;;;3.62;84.11
14273;BME280;7220;49.450;11.052;2023-11-22T12:33:31;99224.06;;;3.65;84.04
14273;BME280;7220;49.450;11.052;2023-11-22T12:37:32;99237.22;;;3.65;83.70
14273;BME280;7220;49.450;11.052;2023-11-22T12:41:32;99226.69;;;3.68;84.55
14273;BME280;7220;49.450;11.052;2023-11-22T12:45:33;99222.31;;;3.67;84.26
14273;BME280;7220;49.450;11.052;2023-11-22T12:49:45;99229.31;;;3.65;83.89
14273;BME280;7220;49.450;11.052;2023-11-22T12:53:49;99229.31;;;3.65;84.10
14273;BME280;7220;49.450;11.052;2023-11-22T12:58:00;99215.38;;;3.59;83.66
14273;BME280;7220;49.450;11.052;2023-11-22T13:02:05;99216.38;;;3.41;84.09
14273;BME280;7220;49.450;11.052;2023-11-22T13:06:07;99232.19;;;3.38;84.22
14273;BME280;7220;49.450;11.052;2023-11-22T13:10:07;99240.94;;;3.40;84.64
14273;BME280;7220;49.450;11.052;2023-11-22T13:14:09;99245.28;;;3.40;84.61
14273;BME280;7220;49.450;11.052;2023-11-22T13:18:10;99233.91;;;3.38;84.07
14273;BME280;7220;49.450;11.052;2023-11-22T13:22:10;99229.53;;;3.37;84.04
14273;BME280;7220;49.450;11.052;2023-11-22T13:26:12;99233.13;;;3.28;84.63
14273;BME280;7220;49.450;11.052;2023-11-22T13:30:17;99237.53;;;3.27;85.04
14273;BME280;7220;49.450;11.052;2023-11-22T13:34:20;99208.56;;;3.30;84.28
14273;BME280;7220;49.450;11.052;2023-11-22T13:38:20;99205.97;;;3.29;85.26
14273;BME280;7220;49.450;11.052;2023-11-22T13:42:20;99203.31;;;3.30;84.81
14273;BME280;7220;49.450;11.052;2023-11-22T13:46:21;99187.59;;;3.26;85.30
14273;BME280;7220;49.450;11.052;2023-11-22T13:50:21;99184.03;;;3.33;84.75
14273;BME280;7220;49.450;11.052;2023-11-22T13:54:22;99189.31;;;3.31;84.87
14273;BME280;7220;49.450;11.052;2023-11-22T13:58:22;99207.75;;;3.25;84.72
14273;BME280;7220;49.450;11.052;2023-11-22T14:02:23;99221.72;;;3.30;85.21
14273;BME280;7220;49.450;11.052;2023-11-22T14:06:23;99236.59;;;3.31;84.50
14273;BME280;7220;49.450;11.052;2023-11-22T14:10:24;99255.00;;;3.31;84.52
14273;BME280;7220;49.450;11.052;2023-11-22T14:14:24;99260.28;;;3.27;84.69
14273;BME280;7220;49.450;11.052;2023-11-22T14:18:25;99257.66;;;3.28;85.00
14273;BME280;7220;49.450;11.052;2023-11-22T14:22:25;99249.81;;;3.24;84.60
14273;BME280;7220;49.450;11.052;2023-11-22T14:26:27;99266.44;;;3.23;85.25
14273;BME280;7220;49.450;11.052;2023-11-22T14:30:27;99277.84;;;3.20;84.89
14273;BME280;7220;49.450;11.052;2023-11-22T14:34:30;99277.84;;;3.19;85.42
14273;BME280;7220;49.450;11.052;2023-11-22T14:38:30;99283.97;;;3.19;85.06
14273;BME280;7220;49.450;11.052;2023-11-22T14:42:31;99273.50;;;3.16;85.85
14273;BME280;7220;49.450;11.052;2023-11-22T14:46:31;99259.53;;;3.11;85.67
14273;BME280;7220;49.450;11.052;2023-11-22T14:50:32;99261.28;;;3.12;85.77
14273;BME280;7220;49.450;11.052;2023-11-22T14:54:33;99242.94;;;3.01;85.99
14273;BME280;7220;49.450;11.052;2023-11-22T14:58:33;99224.53;;;3.04;85.77
14273;BME280;7220;49.450;11.052;2023-11-22T15:02:35;99221.97;;;2.98;86.49
14273;BME280;7220;49.450;11.052;2023-11-22T15:06:36;99234.22;;;2.96;86.20
14273;BME280;7220;49.450;11.052;2023-11-22T15:10:38;99234.22;;;2.93;85.99
14273;BME280;7220;49.450;11.052;2023-11-22T15:14:39;99236.00;;;2.92;86.27
14273;BME280;7220;49.450;11.052;2023-11-22T15:18:39;99233.38;;;2.92;86.92
14273;BME280;7220;49.450;11.052;2023-11-22T15:22:42;99242.13;;;2.91;87.21
14273;BME280;7220;49.450;11.052;2023-11-22T15:26:43;99252.66;;;2.88;86.43
14273;BME280;7220;49.450;11.052;2023-11-22T15:30:44;99267.56;;;2.80;86.04
14273;BME280;7220;49.450;11.052;2023-11-22T15:34:44;99279.84;;;2.76;86.16
14273;BME280;7220;49.450;11.052;2023-11-22T15:38:57;99291.22;;;2.77;86.66
14273;BME280;7220;49.450;11.052;2023-11-22T15:42:57;99301.72;;;2.77;86.54
14273;BME280;7220;49.450;11.052;2023-11-22T15:47:05;99303.44;;;2.79;87.07
14273;BME280;7220;49.450;11.052;2023-11-22T15:51:08;99306.06;;;2.81;87.71
14273;BME280;7220;49.450;11.052;2023-11-22T15:55:11;99300.84;;;2.78;87.58
14273;BME280;7220;49.450;11.052;2023-11-22T15:59:12;99308.72;;;2.78;86.91
14273;BME280;7220;49.450;11.052;2023-11-22T16:03:12;99297.31;;;2.80;87.62
14273;BME280;7220;49.450;11.052;2023-11-22T16:07:17;99291.16;;;2.83;87.95
14273;BME280;7220;49.450;11.052;2023-11-22T16:11:18;99295.56;;;2.82;88.24
14273;BME280;7220;49.450;11.052;2023-11-22T16:15:18;99277.19;;;2.78;87.53
14273;BME280;7220;49.450;11.052;2023-11-22T16:19:19;99289.41;;;2.85;87.10
14273;BME280;7220;49.450;11.052;2023-11-22T16:23:19;99293.78;;;2.83;87.62
14273;BME280;7220;49.450;11.052;2023-11-22T16:27:19;99291.22;;;2.80;87.94
14273;BME280;7220;49.450;11.052;2023-11-22T16:31:22;99287.72;;;2.75;87.41
14273;BME280;7220;49.450;11.052;2023-11-22T16:35:22;99303.41;;;2.81;87.18
14273;BME280;7220;49.450;11.052;2023-11-22T16:39:23;99311.31;;;2.81;87.47
14273;BME280;7220;49.450;11.052;2023-11-22T16:43:24;99311.34;;;2.78;86.93
14273;BME280;7220;49.450;11.052;2023-11-22T16:47:25;99320.97;;;2.76;87.19
14273;BME280;7220;49.450;11.052;2023-11-22T16:51:26;99326.19;;;2.77;87.35
14273;BME280;7220;49.450;11.052;2023-11-22T16:55:27;99311.31;;;2.79;87.53
14273;BME280;7220;49.450;11.052;2023-11-22T16:59:28;99315.72;;;2.79;87.94
14273;BME280;7220;49.450;11.052;2023-11-22T17:03:28;99312.22;;;2.74;87.53
14273;BME280;7220;49.450;11.052;2023-11-22T17:07:29;99312.25;;;2.71;88.01
14273;BME280;7220;49.450;11.052;2023-11-22T17:11:29;99328.84;;;2.73;88.13
14273;BME280;7220;49.450;11.052;2023-11-22T17:15:30;99343.72;;;2.77;88.12
14273;BME280;7220;49.450;11.052;2023-11-22T17:19:31;99348.97;;;2.75;88.95
14273;BME280;7220;49.450;11.052;2023-11-22T17:23:31;99355.97;;;2.78;88.50
14273;BME280;7220;49.450;11.052;2023-11-22T17:27:32;99353.38;;;2.67;88.83
14273;BME280;7220;49.450;11.052;2023-11-22T17:31:33;99367.34;;;2.72;88.48
14273;BME280;7220;49.450;11.052;2023-11-22T17:35:33;99376.09;;;2.73;88.98
14273;BME280;7220;49.450;11.052;2023-11-22T17:39:33;99369.13;;;2.72;89.14
14273;BME280;7220;49.450;11.052;2023-11-22T17:43:34;99372.59;;;2.67;89.26
14273;BME280;7220;49.450;11.052;2023-11-22T17:47:35;99382.22;;;2.75;88.91
14273;BME280;7220;49.450;11.052;2023-11-22T17:51:41;99382.22;;;2.75;89.67
14273;BME280;7220;49.450;11.052;2023-11-22T17:55:41;99385.72;;;2.77;89.22
14273;BME280;7220;49.450;11.052;2023-11-22T17:59:43;99394.47;;;2.79;88.36
14273;BME280;7220;49.450;11.052;2023-11-22T18:03:43;99393.59;;;2.77;89.38
14273;BME280;7220;49.450;11.052;2023-11-22T18:07:46;99376.97;;;2.76;89.20
14273;BME280;7220;49.450;11.052;2023-11-22T18:11:46;99374.31;;;2.81;88.63
14273;BME280;7220;49.450;11.052;2023-11-22T18:15:47;99381.31;;;2.82;89.21
14273;BME280;7220;49.450;11.052;2023-11-22T18:19:47;99363.81;;;2.81;88.30
14273;BME280;7220;49.450;11.052;2023-11-22T18:23:47;99356.81;;;2.83;88.66
14273;BME280;7220;49.450;11.052;2023-11-22T18:27:48;99334.97;;;2.76;88.09
14273;BME280;7220;49.450;11.052;2023-11-22T18:31:50;99355.06;;;2.82;87.90
14273;BME280;7220;49.450;11.052;2023-11-22T18:35:51;99345.44;;;2.79;88.02
14273;BME280;7220;49.450;11.052;2023-11-22T18:39:51;99339.38;;;2.70;86.94
14273;BME280;7220;49.450;11.052;2023-11-22T18:43:57;99358.59;;;2.75;87.37
14273;BME280;7220;49.450;11.052;2023-11-22T18:47:57;99359.47;;;2.74;86.83
14273;BME280;7220;49.450;11.052;2023-11-22T18:51:57;99352.47;;;2.70;86.49
14273;BME280;7220;49.450;11.052;2023-11-22T18:55:58;99335.00;;;2.68;87.33
14273;BME280;7220;49.450;11.052;2023-11-22T18:59:59;99317.47;;;2.77;90.04
14273;BME280;7220;49.450;11.052;2023-11-22T19:03:59;99332.38;;;2.67;89.00
14273;BME280;7220;49.450;11.052;2023-11-22T19:08:00;99334.09;;;2.66;88.69
14273;BME280;7220;49.450;11.052;2023-11-22T19:12:00;99342.91;;;2.58;88.21
14273;BME280;7220;49.450;11.052;2023-11-22T19:16:01;99342.91;;;2.50;88.90
14273;BME280;7220;49.450;11.052;2023-11-22T19:20:02;99349.91;;;2.46;88.47
14273;BME280;7220;49.450;11.052;2023-11-22T19:24:03;99349.03;;;2.49;88.40
14273;BME280;7220;49.450;11.052;2023-11-22T19:28:04;99355.19;;;2.48;88.28
14273;BME280;7220;49.450;11.052;2023-11-22T19:32:05;99356.94;;;2.35;88.53
14273;BME280;7220;49.450;11.052;2023-11-22T19:36:05;99350.81;;;2.39;88.78
14273;BME280;7220;49.450;11.052;2023-11-22T19:40:06;99353.44;;;2.42;89.29
14273;BME280;7220;49.450;11.052;2023-11-22T19:44:08;99351.69;;;2.38;88.68
14273;BME280;7220;49.450;11.052;2023-11-22T19:48:08;99354.31;;;2.33;89.10
14273;BME280;7220;49.450;11.052;2023-11-22T19:52:09;99348.22;;;2.28;88.19
14273;BME280;7220;49.450;11.052;2023-11-22T19:56:10;99342.09;;;2.23;88.26
14273;BME280;7220;49.450;11.052;2023-11-22T20:00:11;99352.59;;;2.29;87.43
14273;BME280;7220;49.450;11.052;2023-11-22T20:04:13;99331.59;;;2.25;88.32
14273;BME280;7220;49.450;11.052;2023-11-22T20:08:15;99344.69;;;2.32;87.92
14273;BME280;7220;49.450;11.052;2023-11-22T20:12:15;99351.69;;;2.33;87.84
14273;BME280;7220;49.450;11.052;2023-11-22T20:16:16;99340.34;;;2.25;87.49
14273;BME280;7220;49.450;11.052;2023-11-22T20:20:19;99338.59;;;2.26;87.76
14273;BME280;7220;49.450;11.052;2023-11-22T20:24:25;99335.97;;;2.27;88.08
14273;BME280;7220;49.450;11.052;2023-11-22T20:28:26;99347.31;;;2.26;87.92
14273;BME280;7220;49.450;11.052;2023-11-22T20:32:26;99365.72;;;2.23;88.77
14273;BME280;7220;49.450;11.052;2023-11-22T20:36:27;99349.09;;;2.13;89.08
14273;BME280;7220;49.450;11.052;2023-11-22T20:40:27;99342.09;;;2.15;89.57
14273;BME280;7220;49.450;11.052;2023-11-22T20:44:27;99339.47;;;2.15;89.22
14273;BME280;7220;49.450;11.052;2023-11-22T20:48:28;99326.38;;;2.14;90.17
14273;BME280;7220;49.450;11.052;2023-11-22T20:52:28;99322.00;;;2.17;89.75
14273;BME280;7220;49.450;11.052;2023-11-22T20:56:28;99329.00;;;2.15;90.00
14273;BME280;7220;49.450;11.052;2023-11-22T21:00:29;99319.38;;;2.13;90.07
14273;BME280;7220;49.450;11.052;2023-11-22T21:04:32;99322.88;;;2.12;90.53
14273;BME280;7220;49.450;11.052;2023-11-22T21:08:33;99308.88;;;2.10;90.61
14273;BME280;7220;49.450;11.052;2023-11-22T21:12:34;99323.75;;;2.11;91.07
14273;BME280;7220;49.450;11.052;2023-11-22T21:16:41;99311.53;;;2.08;90.94
14273;BME280;7220;49.450;11.052;2023-11-22T21:20:42;99307.13;;;2.18;90.84
14273;BME280;7220;49.450;11.052;2023-11-22T21:24:42;99309.75;;;2.12;90.95
14273;BME280;7220;49.450;11.052;2023-11-22T21:28:43;99311.50;;;2.05;90.70
14273;BME280;7220;49.450;11.052;2023-11-22T21:32:43;99301.94;;;2.04;90.58
14273;BME280;7220;49.450;11.052;2023-11-22T21:36:44;99300.16;;;2.06;90.90
14273;BME280;7220;49.450;11.052;2023-11-22T21:40:44;99301.03;;;2.11;89.77
14273;BME280;7220;49.450;11.052;2023-11-22T21:44:45;99293.16;;;2.08;90.09
14273;BME280;7220;49.450;11.052;2023-11-22T21:48:45;99299.31;;;1.96;91.05
14273;BME280;7220;49.450;11.052;2023-11-22T21:52:45;99300.16;;;1.95;90.83